メインページ
METAR-TAF:

METAR-TAF

空港 :

ヤップ国際空港

ヤップ州, ミクロネシア

緯度: 09-29N, 経度: 138-05E, 海抜: 28m

現時点の気象観測

当レポートは32分前の22:51(UTC)に作成
南西の風 8kt
気温 29°C
湿度 84%
気圧 1009 hPa
視程: 19.3km
高度1600ftの雲はほとんどない
高度13000ftの千切れ雲あり
高度30000ftの千切れ雲あり

METAR: PTYA 242251Z 23008KT 12SM FEW016 BKN130 BKN300 29/26 A2980 RMK SLP093 T02870257

時間: 09:23 (23:23 UTC)

予報

当レポートは5時間55分前の17:28(UTC)に作成
予報は24日の 18時(UTC)から 25日の 18時(UTC)まで有効
西の風 10kt
視程: 10km
高度1600ftの雲は散在している
高度13000ftの千切れ雲あり
近辺でにわか雨
24日の 18時(UTC)から 24日の 20時(UTC)まで一時的に
視程: 8.0km
高度1600ftの千切れ雲あり
弱いにわか雨

TAF: PTYA 241728Z 2418/2518 26010KT P6SM VCSH SCT016 BKN130 TEMPO 2418/2420 5SM -SHRA BKN016

4,000以上の空港の気象観測と天気予報(METAR報とTAF報)

利用可能な観測所は地図上に黄色い丸と赤い丸で示す。

丸の上にカーソルを重ねると観測所名を参照できる。

次にクリックすると気象観測と天気予報を参照できる。

マップの切り替え:黒色「×」印の緑ボタンをクリックして拡大、「-」印の緑ボタンをクリックして縮小、緑色の三角印をクリックして隣りの地図に切り替え


METAR-TAF: